Wolf 59 — CGBP — position and weather

sailwx.info

Track history (hours):
 
Tides and Currents Weather Stations Pressure Air Temp Water Temp Dewpoint Dewpoint Depression Visibility Wind Speed Wind Dir Waves Ship Positions

Wolf 59

Last reported at 2016-Jul-28 00:33 UTC. Time now 2016-Jul-28 00:54 UTC.
Position N 48°43' W 123°12'.

; draft 2.6 m.

Type: Military. MMSI: 316011515.

Date/timePositionNaut miles runAvg speedWind from/ knotsBaromVisibWave heightAir tempDewpointWater temp
2016-Jul-28 00:33N 48°43' W 123°12'8 7.8
2016-Jul-27 23:33N 48°35' W 123°13'1110.7
2016-Jul-27 22:33N 48°24' W 123°11'9 9.4
2016-Jul-27 21:33N 48°24' W 123°25'2 1.7
2016-Jul-27 20:14N 48°26' W 123°26'0 0.0
2016-Jul-27 19:31N 48°26' W 123°26'0 0.0
2016-Jul-27 18:33N 48°26' W 123°26'2 1.9
2016-Jul-27 17:33N 48°24' W 123°25'4 4.2
2016-Jul-27 16:33N 48°22' W 123°19'20 6.5
2016-Jul-27 13:32N 48°12' W 122°54'5 4.6
2016-Jul-27 12:23N 48°16' W 122°49'7 8.0
2016-Jul-27 11:33N 48°23' W 122°46'1111.1
2016-Jul-27 10:33N 48°34' W 122°45'1010.0
2016-Jul-27 09:33N 48°44' W 122°46'8 7.8
2016-Jul-27 08:33N 48°48' W 122°56'9 8.8
2016-Jul-27 07:33N 48°53' W 123°07'9 8.6
2016-Jul-27 06:33N 48°59' W 123°17'8 8.4
2016-Jul-27 05:33N 49°05' W 123°25'7 7.1
2016-Jul-27 04:33N 49°01' W 123°16'9 9.1
2016-Jul-27 03:33N 48°55' W 123°06'8 7.3
2016-Jul-27 02:32N 48°49' W 122°58'9 8.3
2016-Jul-27 01:29N 48°44' W 123°08'10 7.8
2016-Jul-27 00:14N 48°48' W 123°21'7 1.1
2016-Jul-26 18:15N 48°54' W 123°25'3 3.4
2016-Jul-26 17:31N 48°52' W 123°24'8 7.2
2016-Jul-26 16:23N 48°45' W 123°17'7 8.0
2016-Jul-26 15:32N 48°45' W 123°07'6 5.9
2016-Jul-26 14:34N 48°50' W 123°03'10 9.7
2016-Jul-26 13:34N 48°57' W 123°14'10 9.8
2016-Jul-26 12:34N 49°03' W 123°25'10 9.7
2016-Jul-26 11:34N 49°10' W 123°36'1010.1
2016-Jul-26 10:34N 49°17' W 123°47'1010.4
2016-Jul-26 09:33N 49°21' W 124°02'8 7.8
2016-Jul-26 08:33N 49°24' W 123°50'10 9.8
2016-Jul-26 07:33N 49°19' W 123°37'1110.6
2016-Jul-26 06:33N 49°10' W 123°29'10 9.8
2016-Jul-26 05:33N 49°03' W 123°19'10 9.6
2016-Jul-26 04:33N 48°57' W 123°08'10 9.8
2016-Jul-26 03:33N 48°50' W 122°57'10 9.8
2016-Jul-26 02:33N 48°44' W 123°08'8 7.7
2016-Jul-26 01:33N 48°37' W 123°13'9 9.3
2016-Jul-26 00:33N 48°28' W 123°10'9 8.9
2016-Jul-25 23:33N 48°22' W 123°20'6 6.1
2016-Jul-25 22:34N 48°26' W 123°26'6 6.0
2016-Jul-25 21:33N 48°21' W 123°23'4 3.9
2016-Jul-25 20:33N 48°17' W 123°22'3 3.4
2016-Jul-25 19:33N 48°20' W 123°23'6 6.3
2016-Jul-25 18:33N 48°26' W 123°26'0 0.2
2016-Jul-25 17:32N 48°26' W 123°26'0 0.0
2016-Jul-25 16:33N 48°26' W 123°26'0 0.0
2016-Jul-25 15:30N 48°26' W 123°26'0 0.0
2016-Jul-25 09:33N 48°26' W 123°26'0 0.0
2016-Jul-25 08:33N 48°26' W 123°26'0 0.0
2016-Jul-25 06:33N 48°26' W 123°26'0 0.0
2016-Jul-25 03:27N 48°26' W 123°26'0 0.0
2016-Jul-25 02:26N 48°26' W 123°26'0 0.0
2016-Jul-25 01:33N 48°26' W 123°26'0 0.0
2016-Jul-25 00:14N 48°26' W 123°26'0 0.1
2016-Jul-24 23:32N 48°26' W 123°26'0 0.0
2016-Jul-24 22:30N 48°26' W 123°26'0 0.0
2016-Jul-24 19:32N 48°26' W 123°26'0 0.0
2016-Jul-24 18:05N 48°26' W 123°26'0 0.0
2016-Jul-24 15:23N 48°26' W 123°26'0 0.0
2016-Jul-24 14:22N 48°26' W 123°26'0 0.0
2016-Jul-24 13:25N 48°26' W 123°26'0 0.0
2016-Jul-24 12:13N 48°26' W 123°26'0 0.0
2016-Jul-24 11:18N 48°26' W 123°26'0 0.0
2016-Jul-24 10:24N 48°26' W 123°26'0 0.0
2016-Jul-24 09:32N 48°26' W 123°26'0 0.0
2016-Jul-24 08:29N 48°26' W 123°26'0 0.0
2016-Jul-24 07:32N 48°26' W 123°26'0 0.0
2016-Jul-24 06:29N 48°26' W 123°26'0 0.0
2016-Jul-24 05:32N 48°26' W 123°26'0 0.0
2016-Jul-24 04:26N 48°26' W 123°26'0 0.0
2016-Jul-24 03:31N 48°26' W 123°26'0 0.0
2016-Jul-24 02:31N 48°26' W 123°26'0 0.0
2016-Jul-24 01:28N 48°26' W 123°26'0 0.0
2016-Jul-24 00:31N 48°26' W 123°26'0 0.0
2016-Jul-23 23:28N 48°26' W 123°26'0 0.0
2016-Jul-23 22:34N 48°26' W 123°26'0 0.0
2016-Jul-23 21:33N 48°26' W 123°26'0 0.0
2016-Jul-23 20:30N 48°26' W 123°26'0 0.0
2016-Jul-23 19:30N 48°26' W 123°26'0 0.0
2016-Jul-23 18:33N 48°26' W 123°26'0 0.0
2016-Jul-23 17:30N 48°26' W 123°26'0 0.0
2016-Jul-23 16:33N 48°26' W 123°26'0 0.0
2016-Jul-23 15:29N 48°26' W 123°26'0 0.0
2016-Jul-23 14:32N 48°26' W 123°26'0 0.0
2016-Jul-23 13:32N 48°26' W 123°26'0 0.0
2016-Jul-23 12:32N 48°26' W 123°26'0 0.0
2016-Jul-23 11:32N 48°26' W 123°26'0 0.0
2016-Jul-23 10:32N 48°26' W 123°26'0 0.0
2016-Jul-23 09:32N 48°26' W 123°26'0 0.0
2016-Jul-23 08:32N 48°26' W 123°26'0 0.0
2016-Jul-23 07:32N 48°26' W 123°26'0 0.0
2016-Jul-23 06:32N 48°26' W 123°26'0 0.0
2016-Jul-23 04:32N 48°26' W 123°26'0 0.0
2016-Jul-23 03:32N 48°26' W 123°26'0 0.0
2016-Jul-23 02:32N 48°26' W 123°26'0 0.0
2016-Jul-23 01:32N 48°26' W 123°26'0 0.0
2016-Jul-23 00:32N 48°26' W 123°26'0 0.0
2016-Jul-22 23:32N 48°26' W 123°26'0 0.0
2016-Jul-22 22:32N 48°26' W 123°26'0 0.0
2016-Jul-22 21:31N 48°26' W 123°26'0 0.0
2016-Jul-22 20:31N 48°26' W 123°26'1 0.8
2016-Jul-22 19:32N 48°25' W 123°27'9 9.2
2016-Jul-22 18:33N 48°26' W 123°13'6 6.0
2016-Jul-22 17:34N 48°24' W 123°21'5 4.6
2016-Jul-22 16:33N 48°26' W 123°27'1 0.7
2016-Jul-22 15:33N 48°26' W 123°26'1 0.8
2016-Jul-22 14:33N 48°27' W 123°27'2 1.5
2016-Jul-22 13:34N 48°25' W 123°27'6 6.3
2016-Jul-22 12:34N 48°24' W 123°17'9 9.3
2016-Jul-22 11:34N 48°33' W 123°14'5 5.0
2016-Jul-22 10:33N 48°38' W 123°13'7 6.6
2016-Jul-22 09:33N 48°31' W 123°11'2 1.6
2016-Jul-22 08:33N 48°30' W 123°13'1110.8
2016-Jul-22 07:33N 48°41' W 123°16'10 9.9
2016-Jul-22 06:32N 48°50' W 123°21'8 1.0
2016-Jul-21 22:27N 48°43' W 123°26'9 9.6
2016-Jul-21 21:33N 48°43' W 123°13'10 9.5
2016-Jul-21 20:33N 48°50' W 123°02'1111.3
2016-Jul-21 19:33N 48°57' W 123°14'1010.4
2016-Jul-21 18:33N 49°05' W 123°25'1413.8
2016-Jul-21 17:32N 49°19' W 123°17'7 2.2
2016-Jul-21 14:33N 49°18' W 123°07'10 9.6
2016-Jul-21 13:33N 49°18' W 123°22'1110.6
2016-Jul-21 12:33N 49°19' W 123°38'1010.0
2016-Jul-21 11:33N 49°22' W 123°53'10 9.9
2016-Jul-21 10:33N 49°23' W 124°08'9 9.3
2016-Jul-21 09:33N 49°25' W 124°22'9 8.9
2016-Jul-21 08:33N 49°31' W 124°32'1010.3
2016-Jul-21 07:33N 49°40' W 124°41'1010.2
2016-Jul-21 06:34N 49°47' W 124°51'1010.0
2016-Jul-21 05:34N 49°56' W 124°58'8 8.1
2016-Jul-21 04:34N 50°03' W 124°52'8 8.3
2016-Jul-21 03:33N 50°12' W 124°51'0 0.2
2016-Jul-21 02:33N 50°12' W 124°51'0 0.0
2016-Jul-21 01:33N 50°12' W 124°51'0 0.0
2016-Jul-21 00:33N 50°12' W 124°51'8 8.3
2016-Jul-20 23:34N 50°04' W 124°52'7 6.9
2016-Jul-20 22:34N 49°58' W 124°47'1110.5
2016-Jul-20 21:33N 49°51' W 124°35'1110.3
2016-Jul-20 20:32N 49°45' W 124°21'1211.9
2016-Jul-20 19:33N 49°37' W 124°08'1312.8
2016-Jul-20 18:33N 49°24' W 124°03'9 8.9
2016-Jul-20 17:31N 49°16' W 124°09'0 0.4
2016-Jul-20 16:12N 49°16' W 124°09'2 0.9
2016-Jul-20 14:27N 49°16' W 124°07'0 0.0
2016-Jul-20 12:24N 49°16' W 124°07'0 0.0
2016-Jul-20 10:29N 49°16' W 124°07'0 0.0
2016-Jul-20 06:33N 49°16' W 124°07'6 5.7
2016-Jul-20 05:32N 49°22' W 124°08'1717.5
2016-Jul-20 04:33N 49°30' W 124°31'1717.0
2016-Jul-20 03:33N 49°43' W 124°47'1414.4
2016-Jul-20 02:34N 49°53' W 125°03'1111.2
2016-Jul-20 01:34N 50°02' W 125°14'1313.3
2016-Jul-20 00:33N 50°14' W 125°23'1 0.1
2016-Jul-19 15:26N 50°15' W 125°23'4 4.4
2016-Jul-19 14:31N 50°11' W 125°20'0 0.0
2016-Jul-19 13:33N 50°11' W 125°20'0 0.0
2016-Jul-19 12:28N 50°11' W 125°20'0 0.0
2016-Jul-19 11:33N 50°11' W 125°20'0 0.0
2016-Jul-19 10:33N 50°11' W 125°20'0 0.0
2016-Jul-19 09:32N 50°11' W 125°20'0 0.0
2016-Jul-19 08:31N 50°11' W 125°20'0 0.0
2016-Jul-19 07:33N 50°11' W 125°20'0 0.0
2016-Jul-19 04:33N 50°11' W 125°20'0 0.0
2016-Jul-19 03:32N 50°11' W 125°20'2 1.7
2016-Jul-19 02:33N 50°12' W 125°22'9 6.7
2016-Jul-19 01:15N 50°20' W 125°27'913.2
2016-Jul-19 00:34N 50°12' W 125°22'1211.7
2016-Jul-18 23:33N 50°01' W 125°13'1312.5
2016-Jul-18 22:33N 49°52' W 124°60'1414.2
2016-Jul-18 21:33N 49°43' W 124°43'1313.1
2016-Jul-18 20:32N 49°33' W 124°30'1211.3
2016-Jul-18 19:27N 49°24' W 124°17'1314.0
2016-Jul-18 18:32N 49°19' W 123°59'9 8.6
2016-Jul-18 17:32N 49°10' W 123°56'0 0.0
2016-Jul-18 16:33N 49°10' W 123°56'0 0.0
2016-Jul-18 15:33N 49°10' W 123°56'2 2.4
2016-Jul-18 14:33N 49°12' W 123°53'6 6.4
2016-Jul-18 13:33N 49°14' W 123°44'8 8.0
2016-Jul-18 12:34N 49°10' W 123°33'10 9.6
2016-Jul-18 11:33N 49°04' W 123°22'1010.2
2016-Jul-18 10:34N 48°58' W 123°09'9 9.3
2016-Jul-18 09:34N 48°51' W 122°59'8 8.3
2016-Jul-18 08:34N 48°44' W 123°07'8 8.1
2016-Jul-18 07:34N 48°38' W 123°14'1010.2
2016-Jul-18 06:34N 48°28' W 123°09'9 8.9
2016-Jul-18 05:33N 48°22' W 123°19'7 6.5
2016-Jul-18 04:29N 48°21' W 123°30'2 1.7
2016-Jul-18 03:33N 48°22' W 123°28'5 4.9
2016-Jul-18 02:33N 48°26' W 123°27'1 0.7
2016-Jul-18 01:34N 48°26' W 123°26'0 0.0
2016-Jul-18 00:34N 48°26' W 123°26'  
Track history (hours):
 
Tides and Currents Weather Stations Pressure Air Temp Water Temp Dewpoint Dewpoint Depression Visibility Wind Speed Wind Dir Waves Ship Positions

Wolf 59

Last reported at 2016-Jul-28 00:33 UTC. Time now 2016-Jul-28 00:54 UTC.
Position N 48°43' W 123°12'.

; draft 2.6 m.

Type: Military. MMSI: 316011515.

Date/timePositionNaut miles runAvg speedWind from/ knotsBaromVisibWave heightAir tempDewpointWater temp
2016-Jul-28 00:33N 48°43' W 123°12'8 7.8
2016-Jul-27 23:33N 48°35' W 123°13'1110.7
2016-Jul-27 22:33N 48°24' W 123°11'9 9.4
2016-Jul-27 21:33N 48°24' W 123°25'2 1.7
2016-Jul-27 20:14N 48°26' W 123°26'0 0.0
2016-Jul-27 19:31N 48°26' W 123°26'0 0.0
2016-Jul-27 18:33N 48°26' W 123°26'2 1.9
2016-Jul-27 17:33N 48°24' W 123°25'4 4.2
2016-Jul-27 16:33N 48°22' W 123°19'20 6.5
2016-Jul-27 13:32N 48°12' W 122°54'5 4.6
2016-Jul-27 12:23N 48°16' W 122°49'7 8.0
2016-Jul-27 11:33N 48°23' W 122°46'1111.1
2016-Jul-27 10:33N 48°34' W 122°45'1010.0
2016-Jul-27 09:33N 48°44' W 122°46'8 7.8
2016-Jul-27 08:33N 48°48' W 122°56'9 8.8
2016-Jul-27 07:33N 48°53' W 123°07'9 8.6
2016-Jul-27 06:33N 48°59' W 123°17'8 8.4
2016-Jul-27 05:33N 49°05' W 123°25'7 7.1
2016-Jul-27 04:33N 49°01' W 123°16'9 9.1
2016-Jul-27 03:33N 48°55' W 123°06'8 7.3
2016-Jul-27 02:32N 48°49' W 122°58'9 8.3
2016-Jul-27 01:29N 48°44' W 123°08'10 7.8
2016-Jul-27 00:14N 48°48' W 123°21'7 1.1
2016-Jul-26 18:15N 48°54' W 123°25'3 3.4
2016-Jul-26 17:31N 48°52' W 123°24'8 7.2
2016-Jul-26 16:23N 48°45' W 123°17'7 8.0
2016-Jul-26 15:32N 48°45' W 123°07'6 5.9
2016-Jul-26 14:34N 48°50' W 123°03'10 9.7
2016-Jul-26 13:34N 48°57' W 123°14'10 9.8
2016-Jul-26 12:34N 49°03' W 123°25'10 9.7
2016-Jul-26 11:34N 49°10' W 123°36'1010.1
2016-Jul-26 10:34N 49°17' W 123°47'1010.4
2016-Jul-26 09:33N 49°21' W 124°02'8 7.8
2016-Jul-26 08:33N 49°24' W 123°50'10 9.8
2016-Jul-26 07:33N 49°19' W 123°37'1110.6
2016-Jul-26 06:33N 49°10' W 123°29'10 9.8
2016-Jul-26 05:33N 49°03' W 123°19'10 9.6
2016-Jul-26 04:33N 48°57' W 123°08'10 9.8
2016-Jul-26 03:33N 48°50' W 122°57'10 9.8
2016-Jul-26 02:33N 48°44' W 123°08'8 7.7
2016-Jul-26 01:33N 48°37' W 123°13'9 9.3
2016-Jul-26 00:33N 48°28' W 123°10'9 8.9
2016-Jul-25 23:33N 48°22' W 123°20'6 6.1
2016-Jul-25 22:34N 48°26' W 123°26'6 6.0
2016-Jul-25 21:33N 48°21' W 123°23'4 3.9
2016-Jul-25 20:33N 48°17' W 123°22'3 3.4
2016-Jul-25 19:33N 48°20' W 123°23'6 6.3
2016-Jul-25 18:33N 48°26' W 123°26'0 0.2
2016-Jul-25 17:32N 48°26' W 123°26'0 0.0
2016-Jul-25 16:33N 48°26' W 123°26'0 0.0
2016-Jul-25 15:30N 48°26' W 123°26'0 0.0
2016-Jul-25 09:33N 48°26' W 123°26'0 0.0
2016-Jul-25 08:33N 48°26' W 123°26'0 0.0
2016-Jul-25 06:33N 48°26' W 123°26'0 0.0
2016-Jul-25 03:27N 48°26' W 123°26'0 0.0
2016-Jul-25 02:26N 48°26' W 123°26'0 0.0
2016-Jul-25 01:33N 48°26' W 123°26'0 0.0
2016-Jul-25 00:14N 48°26' W 123°26'0 0.1
2016-Jul-24 23:32N 48°26' W 123°26'0 0.0
2016-Jul-24 22:30N 48°26' W 123°26'0 0.0
2016-Jul-24 19:32N 48°26' W 123°26'0 0.0
2016-Jul-24 18:05N 48°26' W 123°26'0 0.0
2016-Jul-24 15:23N 48°26' W 123°26'0 0.0
2016-Jul-24 14:22N 48°26' W 123°26'0 0.0
2016-Jul-24 13:25N 48°26' W 123°26'0 0.0
2016-Jul-24 12:13N 48°26' W 123°26'0 0.0
2016-Jul-24 11:18N 48°26' W 123°26'0 0.0
2016-Jul-24 10:24N 48°26' W 123°26'0 0.0
2016-Jul-24 09:32N 48°26' W 123°26'0 0.0
2016-Jul-24 08:29N 48°26' W 123°26'0 0.0
2016-Jul-24 07:32N 48°26' W 123°26'0 0.0
2016-Jul-24 06:29N 48°26' W 123°26'0 0.0
2016-Jul-24 05:32N 48°26' W 123°26'0 0.0
2016-Jul-24 04:26N 48°26' W 123°26'0 0.0
2016-Jul-24 03:31N 48°26' W 123°26'0 0.0
2016-Jul-24 02:31N 48°26' W 123°26'0 0.0
2016-Jul-24 01:28N 48°26' W 123°26'0 0.0
2016-Jul-24 00:31N 48°26' W 123°26'0 0.0
2016-Jul-23 23:28N 48°26' W 123°26'0 0.0
2016-Jul-23 22:34N 48°26' W 123°26'0 0.0
2016-Jul-23 21:33N 48°26' W 123°26'0 0.0
2016-Jul-23 20:30N 48°26' W 123°26'0 0.0
2016-Jul-23 19:30N 48°26' W 123°26'0 0.0
2016-Jul-23 18:33N 48°26' W 123°26'0 0.0
2016-Jul-23 17:30N 48°26' W 123°26'0 0.0
2016-Jul-23 16:33N 48°26' W 123°26'0 0.0
2016-Jul-23 15:29N 48°26' W 123°26'0 0.0
2016-Jul-23 14:32N 48°26' W 123°26'0 0.0
2016-Jul-23 13:32N 48°26' W 123°26'0 0.0
2016-Jul-23 12:32N 48°26' W 123°26'0 0.0
2016-Jul-23 11:32N 48°26' W 123°26'0 0.0
2016-Jul-23 10:32N 48°26' W 123°26'0 0.0
2016-Jul-23 09:32N 48°26' W 123°26'0 0.0
2016-Jul-23 08:32N 48°26' W 123°26'0 0.0
2016-Jul-23 07:32N 48°26' W 123°26'0 0.0
2016-Jul-23 06:32N 48°26' W 123°26'0 0.0
2016-Jul-23 04:32N 48°26' W 123°26'0 0.0
2016-Jul-23 03:32N 48°26' W 123°26'0 0.0
2016-Jul-23 02:32N 48°26' W 123°26'0 0.0
2016-Jul-23 01:32N 48°26' W 123°26'0 0.0
2016-Jul-23 00:32N 48°26' W 123°26'0 0.0
2016-Jul-22 23:32N 48°26' W 123°26'0 0.0
2016-Jul-22 22:32N 48°26' W 123°26'0 0.0
2016-Jul-22 21:31N 48°26' W 123°26'0 0.0
2016-Jul-22 20:31N 48°26' W 123°26'1 0.8
2016-Jul-22 19:32N 48°25' W 123°27'9 9.2
2016-Jul-22 18:33N 48°26' W 123°13'6 6.0
2016-Jul-22 17:34N 48°24' W 123°21'5 4.6
2016-Jul-22 16:33N 48°26' W 123°27'1 0.7
2016-Jul-22 15:33N 48°26' W 123°26'1 0.8
2016-Jul-22 14:33N 48°27' W 123°27'2 1.5
2016-Jul-22 13:34N 48°25' W 123°27'6 6.3
2016-Jul-22 12:34N 48°24' W 123°17'9 9.3
2016-Jul-22 11:34N 48°33' W 123°14'5 5.0
2016-Jul-22 10:33N 48°38' W 123°13'7 6.6
2016-Jul-22 09:33N 48°31' W 123°11'2 1.6
2016-Jul-22 08:33N 48°30' W 123°13'1110.8
2016-Jul-22 07:33N 48°41' W 123°16'10 9.9
2016-Jul-22 06:32N 48°50' W 123°21'8 1.0
2016-Jul-21 22:27N 48°43' W 123°26'9 9.6
2016-Jul-21 21:33N 48°43' W 123°13'10 9.5
2016-Jul-21 20:33N 48°50' W 123°02'1111.3
2016-Jul-21 19:33N 48°57' W 123°14'1010.4
2016-Jul-21 18:33N 49°05' W 123°25'1413.8
2016-Jul-21 17:32N 49°19' W 123°17'7 2.2
2016-Jul-21 14:33N 49°18' W 123°07'10 9.6
2016-Jul-21 13:33N 49°18' W 123°22'1110.6
2016-Jul-21 12:33N 49°19' W 123°38'1010.0
2016-Jul-21 11:33N 49°22' W 123°53'10 9.9
2016-Jul-21 10:33N 49°23' W 124°08'9 9.3
2016-Jul-21 09:33N 49°25' W 124°22'9 8.9
2016-Jul-21 08:33N 49°31' W 124°32'1010.3
2016-Jul-21 07:33N 49°40' W 124°41'1010.2
2016-Jul-21 06:34N 49°47' W 124°51'1010.0
2016-Jul-21 05:34N 49°56' W 124°58'8 8.1
2016-Jul-21 04:34N 50°03' W 124°52'8 8.3
2016-Jul-21 03:33N 50°12' W 124°51'0 0.2
2016-Jul-21 02:33N 50°12' W 124°51'0 0.0
2016-Jul-21 01:33N 50°12' W 124°51'0 0.0
2016-Jul-21 00:33N 50°12' W 124°51'8 8.3
2016-Jul-20 23:34N 50°04' W 124°52'7 6.9
2016-Jul-20 22:34N 49°58' W 124°47'1110.5
2016-Jul-20 21:33N 49°51' W 124°35'1110.3
2016-Jul-20 20:32N 49°45' W 124°21'1211.9
2016-Jul-20 19:33N 49°37' W 124°08'1312.8
2016-Jul-20 18:33N 49°24' W 124°03'9 8.9
2016-Jul-20 17:31N 49°16' W 124°09'0 0.4
2016-Jul-20 16:12N 49°16' W 124°09'2 0.9
2016-Jul-20 14:27N 49°16' W 124°07'0 0.0
2016-Jul-20 12:24N 49°16' W 124°07'0 0.0
2016-Jul-20 10:29N 49°16' W 124°07'0 0.0
2016-Jul-20 06:33N 49°16' W 124°07'6 5.7
2016-Jul-20 05:32N 49°22' W 124°08'1717.5
2016-Jul-20 04:33N 49°30' W 124°31'1717.0
2016-Jul-20 03:33N 49°43' W 124°47'1414.4
2016-Jul-20 02:34N 49°53' W 125°03'1111.2
2016-Jul-20 01:34N 50°02' W 125°14'1313.3
2016-Jul-20 00:33N 50°14' W 125°23'1 0.1
2016-Jul-19 15:26N 50°15' W 125°23'4 4.4
2016-Jul-19 14:31N 50°11' W 125°20'0 0.0
2016-Jul-19 13:33N 50°11' W 125°20'0 0.0
2016-Jul-19 12:28N 50°11' W 125°20'0 0.0
2016-Jul-19 11:33N 50°11' W 125°20'0 0.0
2016-Jul-19 10:33N 50°11' W 125°20'0 0.0
2016-Jul-19 09:32N 50°11' W 125°20'0 0.0
2016-Jul-19 08:31N 50°11' W 125°20'0 0.0
2016-Jul-19 07:33N 50°11' W 125°20'0 0.0
2016-Jul-19 04:33N 50°11' W 125°20'0 0.0
2016-Jul-19 03:32N 50°11' W 125°20'2 1.7
2016-Jul-19 02:33N 50°12' W 125°22'9 6.7
2016-Jul-19 01:15N 50°20' W 125°27'913.2
2016-Jul-19 00:34N 50°12' W 125°22'1211.7
2016-Jul-18 23:33N 50°01' W 125°13'1312.5
2016-Jul-18 22:33N 49°52' W 124°60'1414.2
2016-Jul-18 21:33N 49°43' W 124°43'1313.1
2016-Jul-18 20:32N 49°33' W 124°30'1211.3
2016-Jul-18 19:27N 49°24' W 124°17'1314.0
2016-Jul-18 18:32N 49°19' W 123°59'9 8.6
2016-Jul-18 17:32N 49°10' W 123°56'0 0.0
2016-Jul-18 16:33N 49°10' W 123°56'0 0.0
2016-Jul-18 15:33N 49°10' W 123°56'2 2.4
2016-Jul-18 14:33N 49°12' W 123°53'6 6.4
2016-Jul-18 13:33N 49°14' W 123°44'8 8.0
2016-Jul-18 12:34N 49°10' W 123°33'10 9.6
2016-Jul-18 11:33N 49°04' W 123°22'1010.2
2016-Jul-18 10:34N 48°58' W 123°09'9 9.3
2016-Jul-18 09:34N 48°51' W 122°59'8 8.3
2016-Jul-18 08:34N 48°44' W 123°07'8 8.1
2016-Jul-18 07:34N 48°38' W 123°14'1010.2
2016-Jul-18 06:34N 48°28' W 123°09'9 8.9
2016-Jul-18 05:33N 48°22' W 123°19'7 6.5
2016-Jul-18 04:29N 48°21' W 123°30'2 1.7
2016-Jul-18 03:33N 48°22' W 123°28'5 4.9
2016-Jul-18 02:33N 48°26' W 123°27'1 0.7
2016-Jul-18 01:34N 48°26' W 123°26'0 0.0
2016-Jul-18 00:34N 48°26' W 123°26'  

Dump ship's entire track history